createdAt,value
2018-09-17T00:06:58.177Z,89.90
2018-09-17T00:09:26.399Z,90.00
2018-09-17T00:11:54.642Z,90.20
2018-09-17T00:14:22.830Z,90.30
2018-09-17T00:16:51.332Z,90.40
2018-09-17T00:19:19.691Z,90.40
2018-09-17T00:21:47.994Z,90.60
2018-09-17T00:24:16.337Z,90.70
2018-09-17T00:26:44.597Z,90.90
2018-09-17T00:29:12.785Z,91.20
2018-09-17T00:31:41.048Z,91.10
2018-09-17T00:34:10.236Z,91.30
2018-09-17T00:36:38.919Z,91.60
2018-09-17T00:39:09.746Z,91.60
2018-09-17T00:41:38.461Z,91.90
2018-09-17T00:44:07.091Z,91.80
2018-09-17T00:46:35.682Z,91.90
2018-09-17T00:49:04.550Z,92.00
2018-09-17T00:51:33.264Z,92.20
2018-09-17T00:54:01.567Z,92.40
2018-09-17T00:56:29.886Z,92.10
2018-09-17T00:58:58.172Z,92.00
2018-09-17T01:01:26.442Z,92.10
2018-09-17T01:03:55.558Z,92.10
2018-09-17T01:06:24.521Z,91.90
2018-09-17T01:08:52.807Z,91.80
2018-09-17T01:11:23.195Z,91.70
2018-09-17T01:13:51.441Z,91.90
2018-09-17T01:16:20.053Z,92.00
2018-09-17T01:18:48.518Z,92.50
2018-09-17T01:21:16.691Z,92.10
2018-09-17T01:23:44.928Z,92.00
2018-09-17T01:26:13.276Z,92.10
2018-09-17T01:28:41.513Z,92.10
2018-09-17T01:31:09.729Z,92.00
2018-09-17T01:33:37.971Z,92.20
2018-09-17T01:36:06.166Z,92.20
2018-09-17T01:38:34.393Z,92.10
2018-09-17T01:41:02.657Z,92.00
2018-09-17T01:43:31.009Z,91.90
2018-09-17T01:45:59.301Z,91.80
2018-09-17T01:48:27.631Z,91.70
2018-09-17T01:50:55.912Z,91.60
2018-09-17T01:53:24.214Z,91.50
2018-09-17T01:55:52.505Z,91.40
2018-09-17T01:58:20.742Z,91.40
2018-09-17T02:00:48.966Z,91.30
2018-09-17T02:03:17.221Z,91.00
2018-09-17T02:05:45.463Z,90.70
2018-09-17T02:08:13.823Z,90.80
2018-09-17T02:10:41.913Z,90.60
2018-09-17T02:13:10.131Z,90.40
2018-09-17T02:15:38.569Z,90.30
2018-09-17T02:18:06.856Z,90.40
2018-09-17T02:20:35.212Z,90.40
2018-09-17T02:23:03.479Z,90.40
2018-09-17T02:25:31.666Z,90.20
2018-09-17T02:27:59.898Z,90.30
2018-09-17T02:30:28.088Z,90.30
2018-09-17T02:32:56.218Z,90.30
2018-09-17T02:35:24.455Z,90.30
2018-09-17T02:37:52.693Z,90.40
2018-09-17T02:40:20.927Z,90.70
2018-09-17T02:42:50.162Z,90.60
2018-09-17T02:45:19.422Z,90.50
2018-09-17T02:47:47.742Z,91.30
2018-09-17T02:50:16.073Z,91.30
2018-09-17T02:52:44.281Z,91.60
2018-09-17T02:55:12.530Z,91.60
2018-09-17T02:57:40.736Z,91.50
2018-09-17T03:00:09.897Z,91.30
2018-09-17T03:02:38.427Z,91.10
2018-09-17T03:05:08.228Z,90.90
2018-09-17T03:07:36.465Z,90.60
2018-09-17T03:10:04.842Z,90.70
2018-09-17T03:12:33.039Z,90.80
2018-09-17T03:15:11.453Z,91.00
2018-09-17T03:17:39.666Z,90.90
2018-09-17T03:20:09.073Z,90.90
2018-09-17T03:22:37.273Z,90.80
2018-09-17T03:25:05.567Z,90.70
2018-09-17T03:27:33.878Z,90.80
2018-09-17T03:30:02.037Z,90.90
2018-09-17T03:32:30.222Z,91.00
2018-09-17T03:34:59.029Z,90.90
2018-09-17T03:37:30.197Z,91.00
2018-09-17T03:39:59.305Z,91.00
2018-09-17T03:42:28.439Z,91.10
2018-09-17T03:44:58.118Z,91.00
2018-09-17T03:47:26.694Z,91.30
2018-09-17T03:49:55.137Z,91.30
2018-09-17T03:52:23.653Z,91.30
2018-09-17T03:54:51.841Z,91.30
2018-09-17T03:57:20.306Z,91.30
2018-09-17T03:59:48.794Z,91.40
2018-09-17T04:02:17.266Z,91.60
2018-09-17T04:04:45.701Z,91.70
2018-09-17T04:07:14.058Z,91.90
2018-09-17T04:09:44.293Z,92.00
2018-09-17T04:12:13.913Z,92.10
2018-09-17T04:14:42.165Z,92.20
2018-09-17T04:17:10.550Z,92.20
2018-09-17T04:19:38.924Z,92.40
2018-09-17T04:22:07.777Z,92.30
2018-09-17T04:24:35.930Z,92.40
2018-09-17T04:27:04.149Z,92.50
2018-09-17T04:29:33.360Z,92.60
2018-09-17T04:32:01.588Z,93.00
2018-09-17T04:34:29.817Z,92.60
2018-09-17T04:36:58.111Z,92.80
2018-09-17T04:39:27.139Z,93.00
2018-09-17T04:41:55.434Z,93.10
2018-09-17T04:44:23.645Z,92.90
2018-09-17T04:46:52.633Z,92.90
2018-09-17T04:49:21.927Z,93.10
2018-09-17T04:51:50.409Z,93.20
2018-09-17T04:54:18.643Z,93.50
2018-09-17T04:56:47.015Z,94.00
2018-09-17T04:59:16.391Z,94.00
2018-09-17T05:01:44.633Z,93.80
2018-09-17T05:04:13.048Z,93.50
2018-09-17T05:06:41.361Z,93.30
2018-09-17T05:09:10.598Z,93.00
2018-09-17T05:11:38.953Z,92.60
2018-09-17T05:14:07.262Z,92.50
2018-09-17T05:16:35.721Z,92.20
2018-09-17T05:19:03.931Z,92.10
2018-09-17T05:21:32.121Z,92.00
2018-09-17T05:24:00.336Z,91.80
2018-09-17T05:26:28.643Z,91.90
2018-09-17T05:28:56.863Z,92.00
2018-09-17T05:31:25.159Z,92.10
2018-09-17T05:33:53.714Z,92.10
2018-09-17T05:36:23.335Z,92.20
2018-09-17T05:38:51.542Z,91.70
2018-09-17T05:41:19.848Z,91.50
2018-09-17T05:43:48.019Z,91.30
2018-09-17T05:46:16.260Z,91.10
2018-09-17T05:48:45.408Z,91.00
2018-09-17T05:51:13.654Z,90.80
2018-09-17T05:53:44.084Z,90.80
2018-09-17T05:56:13.056Z,90.60
2018-09-17T05:58:41.409Z,90.50
2018-09-17T06:01:09.839Z,90.60
2018-09-17T06:03:38.007Z,90.10
2018-09-17T06:06:06.321Z,90.30
2018-09-17T06:08:35.196Z,90.00
2018-09-17T06:11:04.645Z,89.50
2018-09-17T06:13:32.960Z,89.10
2018-09-17T06:16:01.191Z,88.70
2018-09-17T06:18:29.579Z,88.20
2018-09-17T06:20:58.038Z,88.20
2018-09-17T06:23:26.458Z,88.10
2018-09-17T06:25:54.637Z,88.60
2018-09-17T06:28:22.934Z,88.60
2018-09-17T06:30:51.122Z,88.10
2018-09-17T06:33:19.322Z,87.30
2018-09-17T06:35:47.545Z,87.50
2018-09-17T06:38:15.805Z,87.10
2018-09-17T06:40:44.054Z,86.30
2018-09-17T06:43:12.438Z,85.40
2018-09-17T06:45:44.703Z,84.60
2018-09-17T06:48:13.061Z,82.90
2018-09-17T06:50:41.254Z,82.20
2018-09-17T06:53:09.464Z,82.60
2018-09-17T06:55:37.783Z,82.40
2018-09-17T06:58:06.042Z,82.10
2018-09-17T07:00:34.311Z,81.80
2018-09-17T07:03:02.637Z,81.60
2018-09-17T07:05:30.872Z,80.80
2018-09-17T07:07:59.815Z,79.00
2018-09-17T07:10:28.031Z,77.50
2018-09-17T07:12:56.218Z,77.40
2018-09-17T07:15:24.459Z,77.00
2018-09-17T07:17:52.646Z,76.50
2018-09-17T07:20:21.023Z,76.40
2018-09-17T07:22:49.266Z,76.90
2018-09-17T07:25:17.555Z,75.60
2018-09-17T07:27:46.173Z,75.10
2018-09-17T07:30:14.375Z,72.30
2018-09-17T07:32:42.534Z,71.10
2018-09-17T07:35:12.458Z,70.30
2018-09-17T07:37:40.732Z,70.30
2018-09-17T07:40:08.933Z,70.00
2018-09-17T07:42:37.146Z,69.50
2018-09-17T07:45:06.071Z,69.10
2018-09-17T07:47:34.478Z,68.00
2018-09-17T07:50:02.784Z,67.10
2018-09-17T07:52:31.099Z,65.50
2018-09-17T07:54:59.460Z,64.10
2018-09-17T07:57:27.788Z,63.50
2018-09-17T07:59:55.997Z,61.40
2018-09-17T08:02:24.275Z,61.60
2018-09-17T08:04:52.510Z,60.10
2018-09-17T08:07:20.868Z,59.50
2018-09-17T08:09:49.159Z,59.80
2018-09-17T08:12:17.400Z,57.70
2018-09-17T08:14:46.543Z,57.30
2018-09-17T08:17:14.798Z,55.70
2018-09-17T08:19:43.036Z,53.40
2018-09-17T08:22:11.370Z,50.70
2018-09-17T08:24:39.560Z,47.60
2018-09-17T08:27:07.842Z,44.60
2018-09-17T08:29:36.168Z,41.80
2018-09-17T08:32:04.464Z,39.50
2018-09-17T08:34:32.689Z,39.90
2018-09-17T08:37:00.948Z,39.50
2018-09-17T08:39:29.211Z,38.80
2018-09-17T08:41:57.396Z,38.60
2018-09-17T08:44:25.565Z,38.10
2018-09-17T08:46:53.815Z,38.30
2018-09-17T08:49:22.042Z,39.50
2018-09-17T08:51:50.216Z,40.50
2018-09-17T08:54:19.449Z,39.60
2018-09-17T08:56:55.834Z,40.40
2018-09-17T08:59:30.935Z,40.20
2018-09-17T09:02:04.243Z,38.30
2018-09-17T09:06:42.845Z,37.60
2018-09-17T09:09:15.270Z,36.20
2018-09-17T09:11:47.464Z,37.10
2018-09-17T09:14:21.090Z,37.80
2018-09-17T09:16:49.494Z,37.90
2018-09-17T09:19:17.816Z,37.10
2018-09-17T09:21:46.090Z,38.40
2018-09-17T09:24:14.432Z,38.00
2018-09-17T09:26:42.755Z,37.60
2018-09-17T09:29:11.051Z,37.50
2018-09-17T09:31:39.259Z,35.00
2018-09-17T09:34:07.490Z,34.10
2018-09-17T09:36:35.722Z,33.60
2018-09-17T09:39:05.873Z,32.50
2018-09-17T09:41:34.419Z,32.10
2018-09-17T09:44:03.285Z,32.60
2018-09-17T09:46:31.548Z,33.10
2018-09-17T09:48:59.747Z,32.50
2018-09-17T09:51:27.952Z,33.20
2018-09-17T09:53:56.345Z,33.90
2018-09-17T09:56:24.625Z,33.50
2018-09-17T09:58:52.968Z,33.00
2018-09-17T10:01:27.257Z,32.20
2018-09-17T10:04:01.026Z,33.50
2018-09-17T10:06:29.288Z,34.40
2018-09-17T10:09:02.973Z,35.30
2018-09-17T10:11:36.541Z,36.20
2018-09-17T10:14:10.237Z,35.90
2018-09-17T10:16:42.750Z,35.70
2018-09-17T10:19:16.462Z,35.50
2018-09-17T10:21:44.650Z,36.10
2018-09-17T10:24:12.846Z,35.90
2018-09-17T10:26:41.118Z,37.70
2018-09-17T10:29:09.296Z,38.40
2018-09-17T10:31:37.477Z,39.10
2018-09-17T10:34:05.687Z,39.60
2018-09-17T10:36:33.922Z,39.00
2018-09-17T10:39:02.115Z,38.90
2018-09-17T10:41:30.338Z,39.60
2018-09-17T10:43:58.543Z,40.40
2018-09-17T10:46:26.790Z,40.00
2018-09-17T10:48:55.910Z,40.60
2018-09-17T10:51:24.150Z,40.50
2018-09-17T10:53:52.631Z,40.00
2018-09-17T10:56:20.879Z,40.60
2018-09-17T10:58:49.141Z,41.10
2018-09-17T11:01:17.365Z,40.30
2018-09-17T11:03:45.684Z,39.80
2018-09-17T11:06:13.943Z,39.40
2018-09-17T11:08:42.119Z,39.10
2018-09-17T11:11:10.278Z,38.90
2018-09-17T11:13:38.570Z,38.00
2018-09-17T11:16:06.764Z,38.00
2018-09-17T11:18:34.945Z,38.10
2018-09-17T11:21:03.188Z,37.00
2018-09-17T11:23:31.628Z,37.30
2018-09-17T11:25:59.876Z,37.90
2018-09-17T11:28:28.110Z,36.90
2018-09-17T11:30:56.384Z,37.00
2018-09-17T11:33:24.581Z,35.90
2018-09-17T11:35:52.899Z,36.40
2018-09-17T11:38:21.092Z,36.30
2018-09-17T11:40:49.316Z,35.50
2018-09-17T11:43:17.543Z,35.90
2018-09-17T11:45:45.925Z,35.40
2018-09-17T11:48:14.170Z,36.10
2018-09-17T11:50:42.377Z,35.90
2018-09-17T11:53:10.598Z,35.60
2018-09-17T11:55:38.817Z,36.50
2018-09-17T11:58:06.998Z,36.50
2018-09-17T12:00:40.713Z,36.50
2018-09-17T12:03:14.368Z,35.40
2018-09-17T12:05:48.032Z,34.90
2018-09-17T12:08:18.681Z,35.60
2018-09-17T12:10:46.887Z,36.10
2018-09-17T12:13:15.881Z,36.80
2018-09-17T12:15:44.636Z,36.00
2018-09-17T12:18:13.842Z,35.90
2018-09-17T12:20:42.037Z,36.10
2018-09-17T12:23:10.715Z,36.20
2018-09-17T12:25:38.956Z,34.60
2018-09-17T12:28:07.646Z,34.80
2018-09-17T12:30:35.941Z,35.10
2018-09-17T12:33:04.236Z,35.10
2018-09-17T12:35:32.460Z,34.40
2018-09-17T12:38:00.684Z,35.00
2018-09-17T12:40:29.916Z,34.80
2018-09-17T12:42:58.191Z,34.20
2018-09-17T12:45:26.733Z,33.70
2018-09-17T12:47:55.522Z,33.30
2018-09-17T12:50:24.040Z,33.30
2018-09-17T12:52:52.287Z,33.50
2018-09-17T12:55:20.519Z,33.70
2018-09-17T12:57:49.188Z,33.40
2018-09-17T13:00:17.386Z,33.70
2018-09-17T13:02:45.713Z,33.20
2018-09-17T13:05:14.107Z,33.30
2018-09-17T13:07:42.417Z,32.70
2018-09-17T13:10:10.624Z,33.10
2018-09-17T13:12:38.846Z,33.30
2018-09-17T13:15:07.243Z,32.40
2018-09-17T13:17:35.660Z,32.30
2018-09-17T13:24:56.922Z,31.20
2018-09-17T13:27:25.088Z,31.30
2018-09-17T13:29:53.332Z,32.30
2018-09-17T13:32:21.676Z,31.00
2018-09-17T13:34:50.016Z,31.10
2018-09-17T13:37:18.246Z,32.30
2018-09-17T13:39:46.565Z,30.60
2018-09-17T13:42:14.870Z,30.00
2018-09-17T13:44:43.257Z,30.00
2018-09-17T13:47:11.386Z,30.70
2018-09-17T13:49:39.698Z,31.00
2018-09-17T13:52:07.921Z,30.10
2018-09-17T13:54:37.250Z,30.60
2018-09-17T13:57:05.521Z,30.40
2018-09-17T13:59:33.872Z,30.60
2018-09-17T14:02:02.105Z,31.10
2018-09-17T14:04:30.411Z,30.90
2018-09-17T14:06:58.789Z,30.40
2018-09-17T14:09:27.013Z,31.00
2018-09-17T14:11:55.209Z,31.40
2018-09-17T14:14:23.432Z,30.90
2018-09-17T14:16:51.800Z,31.20
2018-09-17T14:19:20.073Z,31.00
2018-09-17T14:21:48.240Z,31.10
2018-09-17T14:24:16.472Z,31.60
2018-09-17T14:26:44.690Z,30.20
2018-09-17T14:29:12.940Z,30.60
2018-09-17T14:31:46.705Z,30.10
2018-09-17T14:34:14.917Z,30.10
2018-09-17T14:36:43.139Z,30.40
2018-09-17T14:39:11.340Z,30.30
2018-09-17T14:41:39.601Z,31.30
2018-09-17T14:44:08.688Z,30.20
2018-09-17T14:46:36.935Z,30.20
2018-09-17T14:49:05.122Z,31.60
2018-09-17T14:51:33.406Z,31.30
2018-09-17T14:54:01.825Z,31.20
2018-09-17T14:56:31.388Z,31.80
2018-09-17T14:58:59.904Z,31.80
2018-09-17T15:01:28.393Z,32.20
2018-09-17T15:03:56.606Z,32.60
2018-09-17T15:06:24.872Z,32.60
2018-09-17T15:08:53.223Z,32.70
2018-09-17T15:11:21.365Z,32.70
2018-09-17T15:13:49.722Z,32.00
2018-09-17T15:16:18.076Z,32.10
2018-09-17T15:18:47.279Z,31.60
2018-09-17T15:21:15.595Z,32.10
2018-09-17T15:23:43.874Z,32.30
2018-09-17T15:26:12.175Z,30.50
2018-09-17T15:28:40.359Z,29.90
2018-09-17T15:31:08.715Z,30.20
2018-09-17T15:33:36.876Z,30.20
2018-09-17T15:36:05.445Z,31.30
2018-09-17T15:38:33.621Z,31.60
2018-09-17T15:41:02.113Z,31.00
2018-09-17T15:43:30.216Z,30.30
2018-09-17T15:45:58.363Z,31.10
2018-09-17T15:48:26.583Z,30.80
2018-09-17T15:50:54.876Z,31.60
2018-09-17T15:53:23.144Z,31.70
2018-09-17T15:55:51.428Z,31.00
2018-09-17T15:58:19.966Z,30.40
2018-09-17T16:00:48.614Z,30.70
2018-09-17T16:03:17.095Z,30.50
2018-09-17T16:05:45.381Z,30.80
2018-09-17T16:08:13.865Z,32.20
2018-09-17T16:10:43.184Z,32.10
2018-09-17T16:13:11.491Z,31.40
2018-09-17T16:15:39.717Z,31.40
2018-09-17T16:18:08.013Z,31.80
2018-09-17T16:20:36.205Z,32.30
2018-09-17T16:23:04.527Z,32.40
2018-09-17T16:25:32.875Z,32.60
2018-09-17T16:28:01.307Z,31.00
2018-09-17T16:30:29.536Z,31.80
2018-09-17T16:32:57.736Z,32.00
2018-09-17T16:35:26.074Z,32.60
2018-09-17T16:37:55.276Z,32.70
2018-09-17T16:40:23.548Z,34.50
2018-09-17T16:42:51.756Z,35.50
2018-09-17T16:45:20.262Z,36.10
2018-09-17T16:47:48.575Z,34.30
2018-09-17T16:50:16.893Z,34.00
2018-09-17T16:52:46.212Z,34.20
2018-09-17T16:55:14.380Z,34.80
2018-09-17T16:57:42.839Z,34.80
2018-09-17T17:00:11.118Z,34.70
2018-09-17T17:02:40.615Z,35.40
2018-09-17T17:05:08.908Z,35.90
2018-09-17T17:07:37.126Z,37.30
2018-09-17T17:10:05.627Z,37.00
2018-09-17T17:12:33.859Z,37.20
2018-09-17T17:15:02.072Z,38.00
2018-09-17T17:17:30.293Z,38.40
2018-09-17T17:19:58.557Z,39.00
2018-09-17T17:22:26.839Z,39.60
2018-09-17T17:24:55.058Z,40.30
2018-09-17T17:27:23.396Z,40.80
2018-09-17T17:29:51.678Z,41.50
2018-09-17T17:32:20.009Z,41.90
2018-09-17T17:34:48.309Z,42.00
2018-09-17T17:37:16.674Z,42.30
2018-09-17T17:44:38.849Z,42.70
2018-09-17T17:47:07.150Z,43.80
2018-09-17T17:49:35.370Z,43.90
2018-09-17T17:52:03.706Z,44.10
2018-09-17T17:54:32.063Z,44.10
2018-09-17T17:57:01.184Z,44.00
2018-09-17T17:59:29.560Z,44.20
2018-09-17T18:01:57.764Z,44.50
2018-09-17T18:04:26.196Z,45.10
2018-09-17T18:06:54.334Z,46.30
2018-09-17T18:09:22.651Z,45.90
2018-09-17T18:11:50.924Z,46.30
2018-09-17T18:14:19.360Z,46.70
2018-09-17T18:16:47.655Z,47.30
2018-09-17T18:19:18.225Z,47.90
2018-09-17T18:21:46.628Z,48.40
2018-09-17T18:24:14.767Z,48.90
2018-09-17T18:26:43.038Z,49.80
2018-09-17T18:29:11.227Z,50.40
2018-09-17T18:31:39.552Z,50.70
2018-09-17T18:34:07.793Z,51.40
2018-09-17T18:36:37.830Z,51.70
2018-09-17T18:39:08.756Z,52.30
2018-09-17T18:41:36.983Z,52.50
2018-09-17T18:44:05.384Z,53.20
2018-09-17T18:46:34.550Z,54.10
2018-09-17T18:49:02.859Z,54.50
2018-09-17T18:51:31.217Z,56.10
2018-09-17T18:53:59.677Z,55.70
2018-09-17T18:56:27.965Z,55.90
2018-09-17T18:58:56.444Z,56.30
2018-09-17T19:01:25.181Z,56.20
2018-09-17T19:03:53.637Z,56.10
2018-09-17T19:06:22.088Z,56.20
2018-09-17T19:08:50.575Z,56.30
2018-09-17T19:11:19.124Z,56.80
2018-09-17T19:13:52.968Z,56.80
2018-09-17T19:16:26.588Z,57.30
2018-09-17T19:18:55.087Z,57.30
2018-09-17T19:21:27.850Z,57.60
2018-09-17T19:24:01.540Z,58.30
2018-09-17T19:26:29.950Z,58.70
2018-09-17T19:29:03.741Z,59.00
2018-09-17T19:31:32.147Z,59.30
2018-09-17T19:34:00.571Z,59.50
2018-09-17T19:36:29.098Z,60.20
2018-09-17T19:39:02.780Z,60.20
2018-09-17T19:41:31.081Z,60.70
2018-09-17T19:43:59.438Z,61.10
2018-09-17T19:46:27.669Z,60.90
2018-09-17T19:48:55.942Z,61.20
2018-09-17T19:51:29.534Z,61.30
2018-09-17T19:53:57.975Z,61.60
2018-09-17T19:56:26.213Z,62.80
2018-09-17T19:58:59.803Z,62.40
2018-09-17T20:01:28.074Z,62.60
2018-09-17T20:03:58.854Z,63.20
2018-09-17T20:06:27.581Z,63.30
2018-09-17T20:08:55.862Z,63.90
2018-09-17T20:11:24.232Z,64.20
2018-09-17T20:13:52.440Z,64.50
2018-09-17T20:16:21.027Z,65.00
2018-09-17T20:18:49.232Z,65.70
2018-09-17T20:21:29.868Z,66.00
2018-09-17T20:23:58.211Z,66.10
2018-09-17T20:26:26.489Z,66.50
2018-09-17T20:28:54.697Z,66.50
2018-09-17T20:31:22.991Z,66.50
2018-09-17T20:33:51.186Z,66.50
2018-09-17T20:36:19.426Z,66.60
2018-09-17T20:38:47.782Z,66.90
2018-09-17T20:41:15.971Z,67.50
2018-09-17T20:43:44.191Z,68.80
2018-09-17T20:46:12.656Z,67.80
2018-09-17T20:48:40.968Z,68.30
2018-09-17T20:51:09.565Z,68.20
2018-09-17T20:53:37.889Z,68.80
2018-09-17T20:56:06.304Z,68.50
2018-09-17T20:58:35.241Z,68.70
2018-09-17T21:01:04.962Z,69.30
2018-09-17T21:03:33.295Z,69.90
2018-09-17T21:06:02.301Z,69.90
2018-09-17T21:08:30.693Z,70.10
2018-09-17T21:11:00.247Z,70.30
2018-09-17T21:13:30.710Z,71.10
2018-09-17T21:15:59.231Z,71.50
2018-09-17T21:18:27.585Z,72.10
2018-09-17T21:20:56.889Z,72.50
2018-09-17T21:23:30.294Z,72.80
2018-09-17T21:25:59.398Z,73.20
2018-09-17T21:28:27.599Z,73.40
2018-09-17T21:30:58.054Z,73.50
2018-09-17T21:33:26.369Z,73.30
2018-09-17T21:35:54.618Z,73.30
2018-09-17T21:38:25.130Z,73.30
2018-09-17T21:40:53.550Z,74.10
2018-09-17T21:43:21.826Z,74.80
2018-09-17T21:45:50.110Z,75.50
2018-09-17T21:48:18.510Z,75.30
2018-09-17T21:50:46.786Z,74.00
2018-09-17T21:53:14.969Z,72.50
2018-09-17T21:55:43.150Z,72.40
2018-09-17T21:58:11.338Z,71.70
2018-09-17T22:00:45.168Z,71.60
2018-09-17T22:03:13.359Z,71.80
2018-09-17T22:05:41.566Z,72.30
2018-09-17T22:08:09.733Z,72.40
2018-09-17T22:10:38.375Z,72.30
2018-09-17T22:13:06.621Z,72.20
2018-09-17T22:15:34.855Z,71.90
2018-09-17T22:18:03.223Z,71.90
2018-09-17T22:20:31.502Z,71.50
2018-09-17T22:22:59.746Z,71.90
2018-09-17T22:25:27.988Z,72.30
2018-09-17T22:27:56.313Z,72.80
2018-09-17T22:30:24.571Z,73.20
2018-09-17T22:32:52.832Z,74.00
2018-09-17T22:35:21.170Z,74.00
2018-09-17T22:37:49.251Z,74.00
2018-09-17T22:40:17.436Z,74.20
2018-09-17T22:42:45.654Z,74.00
2018-09-17T22:45:14.044Z,73.70
2018-09-17T22:47:42.321Z,73.10
2018-09-17T22:55:04.806Z,71.30
2018-09-17T22:57:33.933Z,70.30
2018-09-17T23:00:03.085Z,70.80
2018-09-17T23:02:31.300Z,71.70
2018-09-17T23:04:59.511Z,73.90
2018-09-17T23:12:22.184Z,74.20
2018-09-17T23:14:51.467Z,71.00
2018-09-17T23:17:21.418Z,69.90
2018-09-17T23:19:49.655Z,69.00
2018-09-17T23:22:17.818Z,68.40
2018-09-17T23:24:46.251Z,67.70
2018-09-17T23:27:14.481Z,67.10
2018-09-17T23:29:42.677Z,66.40
2018-09-17T23:32:10.945Z,66.10
2018-09-17T23:34:39.205Z,65.90
2018-09-17T23:37:07.420Z,65.60
2018-09-17T23:39:35.661Z,65.70
2018-09-17T23:42:03.815Z,66.60
2018-09-17T23:44:32.096Z,65.70
2018-09-17T23:47:00.285Z,66.00
2018-09-17T23:49:28.561Z,66.40
2018-09-17T23:51:56.723Z,66.60
2018-09-17T23:54:25.227Z,67.40
2018-09-17T23:56:53.469Z,67.30
2018-09-17T23:59:21.652Z,67.40
